sensor_id;sensor_type;location;lat;lon;timestamp;temperature;humidity
21439;DHT22;10880;50.302;18.736;2023-07-16T00:01:08;26.80;50.10
21439;DHT22;10880;50.302;18.736;2023-07-16T00:03:35;26.80;50.80
21439;DHT22;10880;50.302;18.736;2023-07-16T00:06:13;26.80;50.50
21439;DHT22;10880;50.302;18.736;2023-07-16T00:08:40;26.70;50.90
21439;DHT22;10880;50.302;18.736;2023-07-16T00:11:07;26.70;50.20
21439;DHT22;10880;50.302;18.736;2023-07-16T00:13:39;26.70;50.80
21439;DHT22;10880;50.302;18.736;2023-07-16T00:16:13;26.60;50.70
21439;DHT22;10880;50.302;18.736;2023-07-16T00:18:44;26.60;51.00
21439;DHT22;10880;50.302;18.736;2023-07-16T00:21:11;26.60;50.60
21439;DHT22;10880;50.302;18.736;2023-07-16T00:23:37;26.60;50.80
21439;DHT22;10880;50.302;18.736;2023-07-16T00:26:05;26.50;50.70
21439;DHT22;10880;50.302;18.736;2023-07-16T00:28:32;26.50;50.80
21439;DHT22;10880;50.302;18.736;2023-07-16T00:30:58;26.50;50.80
21439;DHT22;10880;50.302;18.736;2023-07-16T00:33:27;26.50;50.90
21439;DHT22;10880;50.302;18.736;2023-07-16T00:35:54;26.50;51.10
21439;DHT22;10880;50.302;18.736;2023-07-16T00:38:22;26.40;50.90
21439;DHT22;10880;50.302;18.736;2023-07-16T00:40:52;26.40;51.50
21439;DHT22;10880;50.302;18.736;2023-07-16T00:43:20;26.40;51.10
21439;DHT22;10880;50.302;18.736;2023-07-16T00:45:48;26.40;51.60
21439;DHT22;10880;50.302;18.736;2023-07-16T00:48:16;26.30;51.70
21439;DHT22;10880;50.302;18.736;2023-07-16T00:50:44;26.30;51.50
21439;DHT22;10880;50.302;18.736;2023-07-16T00:53:13;26.30;51.70
21439;DHT22;10880;50.302;18.736;2023-07-16T00:55:41;26.20;51.60
21439;DHT22;10880;50.302;18.736;2023-07-16T00:58:08;26.20;51.60
21439;DHT22;10880;50.302;18.736;2023-07-16T01:00:35;26.20;51.10
21439;DHT22;10880;50.302;18.736;2023-07-16T01:03:05;26.20;51.30
21439;DHT22;10880;50.302;18.736;2023-07-16T01:06:00;26.20;51.80
21439;DHT22;10880;50.302;18.736;2023-07-16T01:08:41;26.10;51.40
21439;DHT22;10880;50.302;18.736;2023-07-16T01:11:10;26.10;52.00
21439;DHT22;10880;50.302;18.736;2023-07-16T01:13:40;26.10;51.90
21439;DHT22;10880;50.302;18.736;2023-07-16T01:16:22;26.10;51.60
21439;DHT22;10880;50.302;18.736;2023-07-16T01:18:52;26.00;52.20
21439;DHT22;10880;50.302;18.736;2023-07-16T01:21:21;26.00;51.60
21439;DHT22;10880;50.302;18.736;2023-07-16T01:29:45;25.90;52.20
21439;DHT22;10880;50.302;18.736;2023-07-16T01:32:16;25.90;52.30
21439;DHT22;10880;50.302;18.736;2023-07-16T01:34:43;25.90;52.20
21439;DHT22;10880;50.302;18.736;2023-07-16T01:37:10;25.80;52.20
21439;DHT22;10880;50.302;18.736;2023-07-16T01:39:38;25.80;52.10
21439;DHT22;10880;50.302;18.736;2023-07-16T01:42:06;25.80;52.30
21439;DHT22;10880;50.302;18.736;2023-07-16T01:44:33;25.80;52.00
21439;DHT22;10880;50.302;18.736;2023-07-16T01:47:13;25.70;52.10
21439;DHT22;10880;50.302;18.736;2023-07-16T01:49:41;25.70;52.60
21439;DHT22;10880;50.302;18.736;2023-07-16T01:52:10;25.70;52.10
21439;DHT22;10880;50.302;18.736;2023-07-16T01:54:37;25.70;52.10
21439;DHT22;10880;50.302;18.736;2023-07-16T01:57:05;25.70;52.40
21439;DHT22;10880;50.302;18.736;2023-07-16T01:59:33;24.80;52.10
21439;DHT22;10880;50.302;18.736;2023-07-16T02:02:00;25.60;52.30
21439;DHT22;10880;50.302;18.736;2023-07-16T02:04:26;25.60;52.20
21439;DHT22;10880;50.302;18.736;2023-07-16T02:06:53;25.60;52.50
21439;DHT22;10880;50.302;18.736;2023-07-16T02:09:21;25.60;52.40
21439;DHT22;10880;50.302;18.736;2023-07-16T02:11:48;25.50;52.80
21439;DHT22;10880;50.302;18.736;2023-07-16T02:14:16;25.50;52.50
21439;DHT22;10880;50.302;18.736;2023-07-16T02:16:45;25.50;52.60
21439;DHT22;10880;50.302;18.736;2023-07-16T02:19:12;25.50;52.90
21439;DHT22;10880;50.302;18.736;2023-07-16T02:21:40;25.50;52.50
21439;DHT22;10880;50.302;18.736;2023-07-16T02:24:07;25.50;52.50
21439;DHT22;10880;50.302;18.736;2023-07-16T02:26:34;25.40;52.80
21439;DHT22;10880;50.302;18.736;2023-07-16T02:29:02;25.40;52.90
21439;DHT22;10880;50.302;18.736;2023-07-16T02:31:28;25.40;52.80
21439;DHT22;10880;50.302;18.736;2023-07-16T02:33:57;25.30;53.60
21439;DHT22;10880;50.302;18.736;2023-07-16T02:36:23;25.30;52.80
21439;DHT22;10880;50.302;18.736;2023-07-16T02:38:51;25.30;52.80
21439;DHT22;10880;50.302;18.736;2023-07-16T02:43:46;25.30;52.90
21439;DHT22;10880;50.302;18.736;2023-07-16T02:46:13;25.30;53.30
21439;DHT22;10880;50.302;18.736;2023-07-16T02:48:41;25.30;53.30
21439;DHT22;10880;50.302;18.736;2023-07-16T02:51:09;25.20;53.30
21439;DHT22;10880;50.302;18.736;2023-07-16T02:53:38;25.30;53.20
21439;DHT22;10880;50.302;18.736;2023-07-16T02:56:04;25.20;53.00
21439;DHT22;10880;50.302;18.736;2023-07-16T02:58:34;25.20;53.20
21439;DHT22;10880;50.302;18.736;2023-07-16T03:01:01;25.20;53.20
21439;DHT22;10880;50.302;18.736;2023-07-16T03:03:27;25.20;53.20
21439;DHT22;10880;50.302;18.736;2023-07-16T03:05:54;25.20;53.30
21439;DHT22;10880;50.302;18.736;2023-07-16T03:10:48;25.20;53.50
21439;DHT22;10880;50.302;18.736;2023-07-16T03:13:15;25.10;53.40
21439;DHT22;10880;50.302;18.736;2023-07-16T03:15:42;25.10;53.40
21439;DHT22;10880;50.302;18.736;2023-07-16T03:18:09;25.10;53.40
21439;DHT22;10880;50.302;18.736;2023-07-16T03:20:35;25.10;53.50
21439;DHT22;10880;50.302;18.736;2023-07-16T03:23:02;25.10;53.60
21439;DHT22;10880;50.302;18.736;2023-07-16T03:25:29;25.10;53.70
21439;DHT22;10880;50.302;18.736;2023-07-16T03:27:56;25.10;53.80
21439;DHT22;10880;50.302;18.736;2023-07-16T03:30:23;25.10;53.40
21439;DHT22;10880;50.302;18.736;2023-07-16T03:32:49;25.10;53.70
21439;DHT22;10880;50.302;18.736;2023-07-16T03:35:17;25.10;53.80
21439;DHT22;10880;50.302;18.736;2023-07-16T03:37:44;25.00;53.90
21439;DHT22;10880;50.302;18.736;2023-07-16T03:40:23;25.10;53.90
21439;DHT22;10880;50.302;18.736;2023-07-16T03:42:50;25.00;54.40
21439;DHT22;10880;50.302;18.736;2023-07-16T03:45:18;25.10;54.10
21439;DHT22;10880;50.302;18.736;2023-07-16T03:47:45;25.00;54.10
21439;DHT22;10880;50.302;18.736;2023-07-16T03:50:13;25.00;54.20
21439;DHT22;10880;50.302;18.736;2023-07-16T03:52:39;25.00;54.10
21439;DHT22;10880;50.302;18.736;2023-07-16T03:55:06;25.10;54.30
21439;DHT22;10880;50.302;18.736;2023-07-16T04:02:27;25.10;54.40
21439;DHT22;10880;50.302;18.736;2023-07-16T04:04:54;25.10;54.50
21439;DHT22;10880;50.302;18.736;2023-07-16T04:07:20;25.10;54.40
21439;DHT22;10880;50.302;18.736;2023-07-16T04:09:46;25.10;54.60
21439;DHT22;10880;50.302;18.736;2023-07-16T04:12:13;25.20;54.90
21439;DHT22;10880;50.302;18.736;2023-07-16T04:14:40;25.10;54.60
21439;DHT22;10880;50.302;18.736;2023-07-16T04:17:06;25.20;54.80
21439;DHT22;10880;50.302;18.736;2023-07-16T04:19:33;25.30;55.00
21439;DHT22;10880;50.302;18.736;2023-07-16T04:22:00;25.30;55.00
21439;DHT22;10880;50.302;18.736;2023-07-16T04:24:27;25.30;55.10
21439;DHT22;10880;50.302;18.736;2023-07-16T04:26:54;25.40;55.10
21439;DHT22;10880;50.302;18.736;2023-07-16T04:29:21;25.40;55.20
21439;DHT22;10880;50.302;18.736;2023-07-16T04:31:47;25.40;55.40
21439;DHT22;10880;50.302;18.736;2023-07-16T04:34:14;25.50;55.30
21439;DHT22;10880;50.302;18.736;2023-07-16T04:36:42;25.50;55.30
21439;DHT22;10880;50.302;18.736;2023-07-16T04:39:08;25.50;55.50
21439;DHT22;10880;50.302;18.736;2023-07-16T04:41:35;25.60;55.30
21439;DHT22;10880;50.302;18.736;2023-07-16T04:44:02;25.60;55.20
21439;DHT22;10880;50.302;18.736;2023-07-16T04:46:28;25.70;55.20
21439;DHT22;10880;50.302;18.736;2023-07-16T04:48:56;25.70;55.40
21439;DHT22;10880;50.302;18.736;2023-07-16T04:51:22;25.70;55.20
21439;DHT22;10880;50.302;18.736;2023-07-16T04:53:50;25.80;55.20
21439;DHT22;10880;50.302;18.736;2023-07-16T04:56:16;25.80;55.20
21439;DHT22;10880;50.302;18.736;2023-07-16T04:58:43;25.90;55.30
21439;DHT22;10880;50.302;18.736;2023-07-16T05:01:10;25.90;55.40
21439;DHT22;10880;50.302;18.736;2023-07-16T05:03:36;26.00;55.20
21439;DHT22;10880;50.302;18.736;2023-07-16T05:06:05;26.00;55.40
21439;DHT22;10880;50.302;18.736;2023-07-16T05:08:32;26.00;55.40
21439;DHT22;10880;50.302;18.736;2023-07-16T05:10:59;26.10;55.50
21439;DHT22;10880;50.302;18.736;2023-07-16T05:13:25;26.10;55.50
21439;DHT22;10880;50.302;18.736;2023-07-16T05:15:54;26.20;55.50
21439;DHT22;10880;50.302;18.736;2023-07-16T05:18:23;26.20;55.50
21439;DHT22;10880;50.302;18.736;2023-07-16T05:20:50;26.20;55.50
21439;DHT22;10880;50.302;18.736;2023-07-16T05:23:16;26.30;55.30
21439;DHT22;10880;50.302;18.736;2023-07-16T05:25:50;26.30;55.40
21439;DHT22;10880;50.302;18.736;2023-07-16T05:28:17;26.40;55.90
21439;DHT22;10880;50.302;18.736;2023-07-16T05:30:44;26.40;55.70
21439;DHT22;10880;50.302;18.736;2023-07-16T05:33:11;26.40;55.20
21439;DHT22;10880;50.302;18.736;2023-07-16T05:35:41;26.50;55.80
21439;DHT22;10880;50.302;18.736;2023-07-16T05:38:08;26.50;55.50
21439;DHT22;10880;50.302;18.736;2023-07-16T05:40:35;26.50;55.30
21439;DHT22;10880;50.302;18.736;2023-07-16T05:43:01;26.60;55.30
21439;DHT22;10880;50.302;18.736;2023-07-16T05:45:28;26.60;55.50
21439;DHT22;10880;50.302;18.736;2023-07-16T05:47:55;26.70;55.80
21439;DHT22;10880;50.302;18.736;2023-07-16T05:50:23;26.80;55.50
21439;DHT22;10880;50.302;18.736;2023-07-16T05:52:49;26.80;55.50
21439;DHT22;10880;50.302;18.736;2023-07-16T05:55:18;26.90;55.60
21439;DHT22;10880;50.302;18.736;2023-07-16T05:57:44;26.90;55.40
21439;DHT22;10880;50.302;18.736;2023-07-16T06:00:12;27.00;55.40
21439;DHT22;10880;50.302;18.736;2023-07-16T06:02:44;27.00;56.00
21439;DHT22;10880;50.302;18.736;2023-07-16T06:05:10;27.00;55.80
21439;DHT22;10880;50.302;18.736;2023-07-16T06:07:38;27.10;55.40
21439;DHT22;10880;50.302;18.736;2023-07-16T06:10:07;27.10;55.40
21439;DHT22;10880;50.302;18.736;2023-07-16T06:12:33;27.10;55.70
21439;DHT22;10880;50.302;18.736;2023-07-16T06:15:01;27.20;55.20
21439;DHT22;10880;50.302;18.736;2023-07-16T06:17:28;27.20;55.60
21439;DHT22;10880;50.302;18.736;2023-07-16T06:19:54;27.30;55.50
21439;DHT22;10880;50.302;18.736;2023-07-16T06:22:23;27.40;55.30
21439;DHT22;10880;50.302;18.736;2023-07-16T06:24:50;27.40;55.40
21439;DHT22;10880;50.302;18.736;2023-07-16T06:27:16;27.40;55.30
21439;DHT22;10880;50.302;18.736;2023-07-16T06:29:43;27.50;55.40
21439;DHT22;10880;50.302;18.736;2023-07-16T06:32:09;27.50;55.30
21439;DHT22;10880;50.302;18.736;2023-07-16T06:34:35;27.60;55.30
21439;DHT22;10880;50.302;18.736;2023-07-16T06:37:02;27.70;55.60
21439;DHT22;10880;50.302;18.736;2023-07-16T06:39:28;27.80;56.00
21439;DHT22;10880;50.302;18.736;2023-07-16T06:41:57;27.90;56.60
21439;DHT22;10880;50.302;18.736;2023-07-16T06:44:23;28.10;56.60
21439;DHT22;10880;50.302;18.736;2023-07-16T06:46:50;28.20;56.40
21439;DHT22;10880;50.302;18.736;2023-07-16T06:49:17;28.40;56.40
21439;DHT22;10880;50.302;18.736;2023-07-16T06:51:45;28.60;56.00
21439;DHT22;10880;50.302;18.736;2023-07-16T06:54:12;28.80;55.60
21439;DHT22;10880;50.302;18.736;2023-07-16T06:56:38;28.80;55.50
21439;DHT22;10880;50.302;18.736;2023-07-16T06:59:05;28.90;55.50
21439;DHT22;10880;50.302;18.736;2023-07-16T07:01:32;29.00;55.20
21439;DHT22;10880;50.302;18.736;2023-07-16T07:03:58;29.10;55.00
21439;DHT22;10880;50.302;18.736;2023-07-16T07:06:24;29.20;54.80
21439;DHT22;10880;50.302;18.736;2023-07-16T07:08:51;29.20;54.80
21439;DHT22;10880;50.302;18.736;2023-07-16T07:11:17;29.40;54.80
21439;DHT22;10880;50.302;18.736;2023-07-16T07:13:44;29.80;55.20
21439;DHT22;10880;50.302;18.736;2023-07-16T07:16:11;29.40;55.00
21439;DHT22;10880;50.302;18.736;2023-07-16T07:18:39;29.50;54.90
21439;DHT22;10880;50.302;18.736;2023-07-16T07:21:06;29.60;54.80
21439;DHT22;10880;50.302;18.736;2023-07-16T07:23:32;29.60;54.90
21439;DHT22;10880;50.302;18.736;2023-07-16T07:25:59;29.60;54.90
21439;DHT22;10880;50.302;18.736;2023-07-16T07:28:27;29.70;55.00
21439;DHT22;10880;50.302;18.736;2023-07-16T07:30:53;29.70;55.10
21439;DHT22;10880;50.302;18.736;2023-07-16T07:33:20;29.80;55.20
21439;DHT22;10880;50.302;18.736;2023-07-16T07:35:46;29.90;54.90
21439;DHT22;10880;50.302;18.736;2023-07-16T07:38:13;30.00;54.90
21439;DHT22;10880;50.302;18.736;2023-07-16T07:40:42;30.10;55.00
21439;DHT22;10880;50.302;18.736;2023-07-16T07:43:12;30.30;55.50
21439;DHT22;10880;50.302;18.736;2023-07-16T07:45:39;30.10;55.50
21439;DHT22;10880;50.302;18.736;2023-07-16T07:48:05;30.30;55.00
21439;DHT22;10880;50.302;18.736;2023-07-16T07:50:32;30.40;55.00
21439;DHT22;10880;50.302;18.736;2023-07-16T07:52:58;30.40;55.00
21439;DHT22;10880;50.302;18.736;2023-07-16T07:55:24;30.40;54.60
21439;DHT22;10880;50.302;18.736;2023-07-16T07:57:51;30.60;54.90
21439;DHT22;10880;50.302;18.736;2023-07-16T08:00:17;30.60;55.10
21439;DHT22;10880;50.302;18.736;2023-07-16T08:05:11;30.80;54.80
21439;DHT22;10880;50.302;18.736;2023-07-16T08:07:38;30.90;54.90
21439;DHT22;10880;50.302;18.736;2023-07-16T08:10:05;31.00;54.70
21439;DHT22;10880;50.302;18.736;2023-07-16T08:12:32;31.00;55.00
21439;DHT22;10880;50.302;18.736;2023-07-16T08:17:33;31.10;54.40
21439;DHT22;10880;50.302;18.736;2023-07-16T08:20:05;31.30;54.40
21439;DHT22;10880;50.302;18.736;2023-07-16T08:25:06;31.30;54.20
21439;DHT22;10880;50.302;18.736;2023-07-16T08:27:35;31.40;54.10
21439;DHT22;10880;50.302;18.736;2023-07-16T08:30:01;31.40;54.20
21439;DHT22;10880;50.302;18.736;2023-07-16T08:32:30;31.40;54.40
21439;DHT22;10880;50.302;18.736;2023-07-16T08:34:57;31.50;54.30
21439;DHT22;10880;50.302;18.736;2023-07-16T08:37:23;31.60;54.10
21439;DHT22;10880;50.302;18.736;2023-07-16T08:39:53;31.60;54.10
21439;DHT22;10880;50.302;18.736;2023-07-16T08:42:22;31.70;54.00
21439;DHT22;10880;50.302;18.736;2023-07-16T08:44:51;31.70;53.90
21439;DHT22;10880;50.302;18.736;2023-07-16T08:47:17;31.80;53.90
21439;DHT22;10880;50.302;18.736;2023-07-16T08:49:55;31.80;54.30
21439;DHT22;10880;50.302;18.736;2023-07-16T08:52:22;31.90;54.00
21439;DHT22;10880;50.302;18.736;2023-07-16T08:54:49;32.00;53.80
21439;DHT22;10880;50.302;18.736;2023-07-16T08:57:15;32.00;53.70
21439;DHT22;10880;50.302;18.736;2023-07-16T08:59:43;32.00;54.30
21439;DHT22;10880;50.302;18.736;2023-07-16T09:02:12;32.10;54.30
21439;DHT22;10880;50.302;18.736;2023-07-16T09:04:40;32.10;54.20
21439;DHT22;10880;50.302;18.736;2023-07-16T09:07:06;32.20;53.60
21439;DHT22;10880;50.302;18.736;2023-07-16T09:09:33;32.20;53.60
21439;DHT22;10880;50.302;18.736;2023-07-16T09:11:59;32.30;53.40
21439;DHT22;10880;50.302;18.736;2023-07-16T09:14:27;32.40;53.30
21439;DHT22;10880;50.302;18.736;2023-07-16T09:19:22;32.50;53.10
21439;DHT22;10880;50.302;18.736;2023-07-16T09:21:49;32.60;53.00
21439;DHT22;10880;50.302;18.736;2023-07-16T09:24:16;32.50;53.50
21439;DHT22;10880;50.302;18.736;2023-07-16T09:26:53;32.60;53.40
21439;DHT22;10880;50.302;18.736;2023-07-16T09:29:20;32.70;53.50
21439;DHT22;10880;50.302;18.736;2023-07-16T09:31:57;32.70;53.30
21439;DHT22;10880;50.302;18.736;2023-07-16T09:34:27;32.80;52.70
21439;DHT22;10880;50.302;18.736;2023-07-16T09:36:57;32.80;53.20
21439;DHT22;10880;50.302;18.736;2023-07-16T09:39:26;32.90;52.50
21439;DHT22;10880;50.302;18.736;2023-07-16T09:41:54;32.90;52.30
21439;DHT22;10880;50.302;18.736;2023-07-16T09:44:23;33.00;52.50
21439;DHT22;10880;50.302;18.736;2023-07-16T09:46:49;33.00;52.70
21439;DHT22;10880;50.302;18.736;2023-07-16T09:49:17;33.00;52.60
21439;DHT22;10880;50.302;18.736;2023-07-16T09:51:46;33.10;52.60
21439;DHT22;10880;50.302;18.736;2023-07-16T09:54:15;33.20;52.90
21439;DHT22;10880;50.302;18.736;2023-07-16T09:56:46;33.20;52.70
21439;DHT22;10880;50.302;18.736;2023-07-16T09:59:16;33.30;52.60
21439;DHT22;10880;50.302;18.736;2023-07-16T10:01:43;33.40;51.70
21439;DHT22;10880;50.302;18.736;2023-07-16T10:04:11;33.40;52.10
21439;DHT22;10880;50.302;18.736;2023-07-16T10:06:55;33.40;52.00
21439;DHT22;10880;50.302;18.736;2023-07-16T10:14:45;33.50;51.10
21439;DHT22;10880;50.302;18.736;2023-07-16T10:17:21;33.50;51.50
21439;DHT22;10880;50.302;18.736;2023-07-16T10:22:18;33.50;51.50
21439;DHT22;10880;50.302;18.736;2023-07-16T10:24:51;33.50;51.30
21439;DHT22;10880;50.302;18.736;2023-07-16T10:27:32;33.60;51.30
21439;DHT22;10880;50.302;18.736;2023-07-16T10:30:00;33.60;51.30
21439;DHT22;10880;50.302;18.736;2023-07-16T10:32:33;33.70;50.80
21439;DHT22;10880;50.302;18.736;2023-07-16T10:35:09;33.70;51.10
21439;DHT22;10880;50.302;18.736;2023-07-16T10:37:36;33.80;50.60
21439;DHT22;10880;50.302;18.736;2023-07-16T10:40:04;33.80;50.30
21439;DHT22;10880;50.302;18.736;2023-07-16T10:42:31;33.80;50.90
21439;DHT22;10880;50.302;18.736;2023-07-16T10:45:01;33.80;50.80
21439;DHT22;10880;50.302;18.736;2023-07-16T10:47:36;33.90;50.70
21439;DHT22;10880;50.302;18.736;2023-07-16T10:50:07;33.90;50.50
21439;DHT22;10880;50.302;18.736;2023-07-16T10:52:35;33.90;49.70
21439;DHT22;10880;50.302;18.736;2023-07-16T10:55:02;33.90;49.40
21439;DHT22;10880;50.302;18.736;2023-07-16T10:57:30;33.90;50.00
21439;DHT22;10880;50.302;18.736;2023-07-16T10:59:59;33.90;49.30
21439;DHT22;10880;50.302;18.736;2023-07-16T11:02:27;34.00;49.20
21439;DHT22;10880;50.302;18.736;2023-07-16T11:04:53;33.90;49.40
21439;DHT22;10880;50.302;18.736;2023-07-16T11:07:22;34.00;48.80
21439;DHT22;10880;50.302;18.736;2023-07-16T11:09:53;33.90;49.50
21439;DHT22;10880;50.302;18.736;2023-07-16T11:12:22;34.00;49.40
21439;DHT22;10880;50.302;18.736;2023-07-16T11:14:53;34.00;48.80
21439;DHT22;10880;50.302;18.736;2023-07-16T11:17:23;34.00;49.40
21439;DHT22;10880;50.302;18.736;2023-07-16T11:19:54;34.00;49.20
21439;DHT22;10880;50.302;18.736;2023-07-16T11:22:25;34.00;49.20
21439;DHT22;10880;50.302;18.736;2023-07-16T11:24:56;34.00;49.10
21439;DHT22;10880;50.302;18.736;2023-07-16T11:27:29;34.00;48.60
21439;DHT22;10880;50.302;18.736;2023-07-16T11:30:00;34.00;48.90
21439;DHT22;10880;50.302;18.736;2023-07-16T11:32:33;34.00;48.50
21439;DHT22;10880;50.302;18.736;2023-07-16T11:35:10;34.00;48.30
21439;DHT22;10880;50.302;18.736;2023-07-16T11:37:39;34.00;48.50
21439;DHT22;10880;50.302;18.736;2023-07-16T11:40:09;34.00;48.30
21439;DHT22;10880;50.302;18.736;2023-07-16T11:42:38;34.10;47.50
21439;DHT22;10880;50.302;18.736;2023-07-16T11:45:20;34.00;48.20
21439;DHT22;10880;50.302;18.736;2023-07-16T11:47:47;34.10;48.00
21439;DHT22;10880;50.302;18.736;2023-07-16T11:50:18;34.10;48.00
21439;DHT22;10880;50.302;18.736;2023-07-16T11:52:55;34.10;47.50
21439;DHT22;10880;50.302;18.736;2023-07-16T11:55:30;34.10;47.60
21439;DHT22;10880;50.302;18.736;2023-07-16T11:57:56;34.10;47.60
21439;DHT22;10880;50.302;18.736;2023-07-16T12:00:37;34.10;47.90
21439;DHT22;10880;50.302;18.736;2023-07-16T12:03:04;34.20;47.50
21439;DHT22;10880;50.302;18.736;2023-07-16T12:05:32;34.20;47.50
21439;DHT22;10880;50.302;18.736;2023-07-16T12:08:01;34.20;47.50
21439;DHT22;10880;50.302;18.736;2023-07-16T12:10:29;34.20;47.50
21439;DHT22;10880;50.302;18.736;2023-07-16T12:15:23;34.30;47.10
21439;DHT22;10880;50.302;18.736;2023-07-16T12:17:50;34.30;46.30
21439;DHT22;10880;50.302;18.736;2023-07-16T12:20:21;34.30;46.60
21439;DHT22;10880;50.302;18.736;2023-07-16T12:22:48;34.40;46.60
21439;DHT22;10880;50.302;18.736;2023-07-16T12:25:46;34.40;46.70
21439;DHT22;10880;50.302;18.736;2023-07-16T12:28:13;34.40;46.80
21439;DHT22;10880;50.302;18.736;2023-07-16T12:30:40;34.40;46.70
21439;DHT22;10880;50.302;18.736;2023-07-16T12:33:07;34.40;46.70
21439;DHT22;10880;50.302;18.736;2023-07-16T12:35:33;34.50;46.60
21439;DHT22;10880;50.302;18.736;2023-07-16T12:38:02;34.50;46.30
21439;DHT22;10880;50.302;18.736;2023-07-16T12:40:30;34.50;46.90
21439;DHT22;10880;50.302;18.736;2023-07-16T12:42:57;34.50;46.30
21439;DHT22;10880;50.302;18.736;2023-07-16T12:45:24;34.50;46.30
21439;DHT22;10880;50.302;18.736;2023-07-16T12:47:50;34.50;46.10
21439;DHT22;10880;50.302;18.736;2023-07-16T12:50:17;34.50;46.10
21439;DHT22;10880;50.302;18.736;2023-07-16T12:52:43;34.60;46.40
21439;DHT22;10880;50.302;18.736;2023-07-16T12:55:26;34.60;46.10
21439;DHT22;10880;50.302;18.736;2023-07-16T12:57:52;34.60;45.80
21439;DHT22;10880;50.302;18.736;2023-07-16T13:00:20;34.60;45.70
21439;DHT22;10880;50.302;18.736;2023-07-16T13:02:47;34.60;46.40
21439;DHT22;10880;50.302;18.736;2023-07-16T13:05:13;34.60;45.80
21439;DHT22;10880;50.302;18.736;2023-07-16T13:07:40;34.60;45.60
21439;DHT22;10880;50.302;18.736;2023-07-16T13:10:08;34.60;45.70
21439;DHT22;10880;50.302;18.736;2023-07-16T13:12:35;34.60;46.20
21439;DHT22;10880;50.302;18.736;2023-07-16T13:15:01;34.60;45.70
21439;DHT22;10880;50.302;18.736;2023-07-16T13:17:28;34.60;46.10
21439;DHT22;10880;50.302;18.736;2023-07-16T13:22:25;34.70;45.70
21439;DHT22;10880;50.302;18.736;2023-07-16T13:24:52;34.70;46.10
21439;DHT22;10880;50.302;18.736;2023-07-16T13:27:22;34.70;45.80
21439;DHT22;10880;50.302;18.736;2023-07-16T13:29:50;34.70;46.90
21439;DHT22;10880;50.302;18.736;2023-07-16T13:32:17;34.70;46.30
21439;DHT22;10880;50.302;18.736;2023-07-16T13:34:43;34.70;45.70
21439;DHT22;10880;50.302;18.736;2023-07-16T13:37:12;34.70;45.70
21439;DHT22;10880;50.302;18.736;2023-07-16T13:39:41;34.70;45.80
21439;DHT22;10880;50.302;18.736;2023-07-16T13:42:08;34.70;46.00
21439;DHT22;10880;50.302;18.736;2023-07-16T13:47:04;34.70;45.40
21439;DHT22;10880;50.302;18.736;2023-07-16T13:49:33;34.70;45.40
21439;DHT22;10880;50.302;18.736;2023-07-16T13:52:01;34.70;45.40
21439;DHT22;10880;50.302;18.736;2023-07-16T13:54:27;34.70;45.80
21439;DHT22;10880;50.302;18.736;2023-07-16T13:56:54;34.70;45.30
21439;DHT22;10880;50.302;18.736;2023-07-16T13:59:21;34.70;45.20
21439;DHT22;10880;50.302;18.736;2023-07-16T14:01:47;34.70;45.50
21439;DHT22;10880;50.302;18.736;2023-07-16T14:04:20;34.60;45.20
21439;DHT22;10880;50.302;18.736;2023-07-16T14:06:48;34.60;45.70
21439;DHT22;10880;50.302;18.736;2023-07-16T14:09:15;34.60;45.10
21439;DHT22;10880;50.302;18.736;2023-07-16T14:11:42;34.60;45.10
21439;DHT22;10880;50.302;18.736;2023-07-16T14:14:10;34.60;45.60
21439;DHT22;10880;50.302;18.736;2023-07-16T14:16:37;34.60;45.30
21439;DHT22;10880;50.302;18.736;2023-07-16T14:21:32;34.50;45.20
21439;DHT22;10880;50.302;18.736;2023-07-16T14:24:01;34.50;45.70
21439;DHT22;10880;50.302;18.736;2023-07-16T14:26:31;34.50;45.20
21439;DHT22;10880;50.302;18.736;2023-07-16T14:28:59;34.50;45.30
21439;DHT22;10880;50.302;18.736;2023-07-16T14:31:26;34.40;45.30
21439;DHT22;10880;50.302;18.736;2023-07-16T14:33:55;34.40;45.30
21439;DHT22;10880;50.302;18.736;2023-07-16T14:36:22;34.40;45.30
21439;DHT22;10880;50.302;18.736;2023-07-16T14:38:55;34.40;45.60
21439;DHT22;10880;50.302;18.736;2023-07-16T14:41:21;34.30;45.50
21439;DHT22;10880;50.302;18.736;2023-07-16T14:43:48;34.30;45.60
21439;DHT22;10880;50.302;18.736;2023-07-16T14:46:16;34.30;45.90
21439;DHT22;10880;50.302;18.736;2023-07-16T14:48:44;34.30;45.60
21439;DHT22;10880;50.302;18.736;2023-07-16T14:51:12;34.30;45.60
21439;DHT22;10880;50.302;18.736;2023-07-16T14:53:41;34.30;45.70
21439;DHT22;10880;50.302;18.736;2023-07-16T14:56:19;34.20;45.60
21439;DHT22;10880;50.302;18.736;2023-07-16T15:01:18;34.20;45.70
21439;DHT22;10880;50.302;18.736;2023-07-16T15:07:29;34.20;45.80
21439;DHT22;10880;50.302;18.736;2023-07-16T15:09:57;34.10;46.00
21439;DHT22;10880;50.302;18.736;2023-07-16T15:12:24;34.10;45.80
21439;DHT22;10880;50.302;18.736;2023-07-16T15:14:52;34.10;45.80
21439;DHT22;10880;50.302;18.736;2023-07-16T15:17:21;34.00;45.80
21439;DHT22;10880;50.302;18.736;2023-07-16T15:19:54;34.10;45.90
21439;DHT22;10880;50.302;18.736;2023-07-16T15:22:20;34.00;45.90
21439;DHT22;10880;50.302;18.736;2023-07-16T15:24:47;34.00;45.80
21439;DHT22;10880;50.302;18.736;2023-07-16T15:27:15;34.10;45.80
21439;DHT22;10880;50.302;18.736;2023-07-16T15:29:41;34.00;46.30
21439;DHT22;10880;50.302;18.736;2023-07-16T15:32:08;34.00;46.10
21439;DHT22;10880;50.302;18.736;2023-07-16T15:34:38;34.00;45.90
21439;DHT22;10880;50.302;18.736;2023-07-16T15:37:04;34.00;46.00
21439;DHT22;10880;50.302;18.736;2023-07-16T15:39:33;34.00;46.20
21439;DHT22;10880;50.302;18.736;2023-07-16T15:42:05;34.00;46.60
21439;DHT22;10880;50.302;18.736;2023-07-16T15:44:32;34.00;46.50
21439;DHT22;10880;50.302;18.736;2023-07-16T15:46:59;34.00;46.50
21439;DHT22;10880;50.302;18.736;2023-07-16T15:49:25;34.00;46.40
21439;DHT22;10880;50.302;18.736;2023-07-16T15:51:52;34.00;46.20
21439;DHT22;10880;50.302;18.736;2023-07-16T15:54:18;34.00;46.60
21439;DHT22;10880;50.302;18.736;2023-07-16T15:56:45;34.00;46.10
21439;DHT22;10880;50.302;18.736;2023-07-16T15:59:12;34.00;46.10
21439;DHT22;10880;50.302;18.736;2023-07-16T16:01:39;33.90;46.20
21439;DHT22;10880;50.302;18.736;2023-07-16T16:04:05;33.90;46.20
21439;DHT22;10880;50.302;18.736;2023-07-16T16:06:32;33.90;46.50
21439;DHT22;10880;50.302;18.736;2023-07-16T16:08:58;33.90;46.30
21439;DHT22;10880;50.302;18.736;2023-07-16T16:11:40;33.90;46.10